sensor_id;sensor_type;location;lat;lon;timestamp;pressure;altitude;pressure_sealevel;temperature;humidity
58473;BME280;44775;51.564;5.460;2022-08-19T00:00:03;101112.50;;;16.62;100.00
58473;BME280;44775;51.564;5.460;2022-08-19T00:02:29;101107.47;;;16.52;100.00
58473;BME280;44775;51.564;5.460;2022-08-19T00:04:55;101115.16;;;16.48;100.00
58473;BME280;44775;51.564;5.460;2022-08-19T00:07:21;101110.53;;;16.42;100.00
58473;BME280;44775;51.564;5.460;2022-08-19T00:09:46;101105.97;;;16.43;100.00
58473;BME280;44775;51.564;5.460;2022-08-19T00:12:12;101103.66;;;16.33;100.00
58473;BME280;44775;51.564;5.460;2022-08-19T00:14:39;101109.91;;;16.34;100.00
58473;BME280;44775;51.564;5.460;2022-08-19T00:17:05;101113.56;;;16.26;100.00
58473;BME280;44775;51.564;5.460;2022-08-19T00:19:32;101113.34;;;16.21;100.00
58473;BME280;44775;51.564;5.460;2022-08-19T00:21:57;101108.78;;;16.21;100.00
58473;BME280;44775;51.564;5.460;2022-08-19T00:24:24;101106.06;;;16.15;100.00
58473;BME280;44775;51.564;5.460;2022-08-19T00:26:50;101107.28;;;16.12;100.00
58473;BME280;44775;51.564;5.460;2022-08-19T00:29:17;101110.63;;;16.14;100.00
58473;BME280;44775;51.564;5.460;2022-08-19T00:31:44;101115.38;;;16.12;100.00
58473;BME280;44775;51.564;5.460;2022-08-19T00:34:11;101108.97;;;16.13;100.00
58473;BME280;44775;51.564;5.460;2022-08-19T00:36:37;101113.94;;;16.16;100.00
58473;BME280;44775;51.564;5.460;2022-08-19T00:39:03;101116.47;;;16.24;100.00
58473;BME280;44775;51.564;5.460;2022-08-19T00:41:29;101112.75;;;16.25;100.00
58473;BME280;44775;51.564;5.460;2022-08-19T00:44:00;101117.53;;;16.23;100.00
58473;BME280;44775;51.564;5.460;2022-08-19T00:46:27;101116.19;;;16.13;100.00
58473;BME280;44775;51.564;5.460;2022-08-19T00:48:54;101113.06;;;16.09;100.00
58473;BME280;44775;51.564;5.460;2022-08-19T00:51:21;101112.50;;;16.14;100.00
58473;BME280;44775;51.564;5.460;2022-08-19T00:53:48;101118.03;;;16.05;100.00
58473;BME280;44775;51.564;5.460;2022-08-19T00:56:14;101117.97;;;15.99;100.00
58473;BME280;44775;51.564;5.460;2022-08-19T00:58:40;101111.97;;;15.97;100.00
58473;BME280;44775;51.564;5.460;2022-08-19T01:01:06;101117.53;;;15.95;100.00
58473;BME280;44775;51.564;5.460;2022-08-19T01:03:32;101122.53;;;15.98;100.00
58473;BME280;44775;51.564;5.460;2022-08-19T01:05:58;101122.09;;;15.95;100.00
58473;BME280;44775;51.564;5.460;2022-08-19T01:08:25;101105.88;;;15.88;100.00
58473;BME280;44775;51.564;5.460;2022-08-19T01:10:56;101120.41;;;15.87;100.00
58473;BME280;44775;51.564;5.460;2022-08-19T01:13:24;101117.88;;;15.86;100.00
58473;BME280;44775;51.564;5.460;2022-08-19T01:15:58;101120.75;;;15.77;100.00
58473;BME280;44775;51.564;5.460;2022-08-19T01:18:27;101122.84;;;15.82;100.00
58473;BME280;44775;51.564;5.460;2022-08-19T01:20:56;101121.19;;;15.81;100.00
58473;BME280;44775;51.564;5.460;2022-08-19T01:23:23;101117.88;;;15.86;100.00
58473;BME280;44775;51.564;5.460;2022-08-19T01:26:09;101112.84;;;15.76;100.00
58473;BME280;44775;51.564;5.460;2022-08-19T01:28:35;101111.19;;;15.75;100.00
58473;BME280;44775;51.564;5.460;2022-08-19T01:31:01;101109.53;;;15.74;100.00
58473;BME280;44775;51.564;5.460;2022-08-19T01:33:27;101115.97;;;15.73;100.00
58473;BME280;44775;51.564;5.460;2022-08-19T01:35:52;101117.22;;;15.77;100.00
58473;BME280;44775;51.564;5.460;2022-08-19T01:38:24;101109.97;;;15.77;100.00
58473;BME280;44775;51.564;5.460;2022-08-19T01:40:49;101111.22;;;15.81;100.00
58473;BME280;44775;51.564;5.460;2022-08-19T01:43:15;101108.53;;;15.81;100.00
58473;BME280;44775;51.564;5.460;2022-08-19T01:45:41;101113.88;;;15.75;100.00
58473;BME280;44775;51.564;5.460;2022-08-19T01:48:07;101106.19;;;15.72;100.00
58473;BME280;44775;51.564;5.460;2022-08-19T01:50:34;101104.91;;;15.68;100.00
58473;BME280;44775;51.564;5.460;2022-08-19T01:53:01;101108.69;;;15.73;100.00
58473;BME280;44775;51.564;5.460;2022-08-19T01:55:27;101112.19;;;15.67;100.00
58473;BME280;44775;51.564;5.460;2022-08-19T01:57:56;101111.34;;;15.67;100.00
58473;BME280;44775;51.564;5.460;2022-08-19T02:00:24;101116.88;;;15.65;100.00
58473;BME280;44775;51.564;5.460;2022-08-19T02:02:51;101111.50;;;15.65;100.00
58473;BME280;44775;51.564;5.460;2022-08-19T02:05:17;101120.63;;;15.64;100.00
58473;BME280;44775;51.564;5.460;2022-08-19T02:07:44;101115.56;;;15.54;100.00
58473;BME280;44775;51.564;5.460;2022-08-19T02:10:15;101125.75;;;15.59;100.00
58473;BME280;44775;51.564;5.460;2022-08-19T02:12:41;101123.97;;;15.45;100.00
58473;BME280;44775;51.564;5.460;2022-08-19T02:15:06;101129.94;;;15.40;100.00
58473;BME280;44775;51.564;5.460;2022-08-19T02:17:34;101133.53;;;15.47;100.00
58473;BME280;44775;51.564;5.460;2022-08-19T02:20:00;101136.75;;;15.36;100.00
58473;BME280;44775;51.564;5.460;2022-08-19T02:22:26;101132.81;;;15.39;100.00
58473;BME280;44775;51.564;5.460;2022-08-19T02:24:53;101124.63;;;15.47;100.00
58473;BME280;44775;51.564;5.460;2022-08-19T02:27:18;101124.94;;;15.37;100.00
58473;BME280;44775;51.564;5.460;2022-08-19T02:29:46;101127.94;;;15.49;100.00
58473;BME280;44775;51.564;5.460;2022-08-19T02:32:12;101128.03;;;15.34;100.00
58473;BME280;44775;51.564;5.460;2022-08-19T02:34:38;101141.53;;;15.41;100.00
58473;BME280;44775;51.564;5.460;2022-08-19T02:37:04;101147.91;;;15.33;100.00
58473;BME280;44775;51.564;5.460;2022-08-19T02:39:30;101142.69;;;15.31;100.00
58473;BME280;44775;51.564;5.460;2022-08-19T02:41:55;101146.47;;;15.37;100.00
58473;BME280;44775;51.564;5.460;2022-08-19T02:44:21;101137.44;;;15.23;100.00
58473;BME280;44775;51.564;5.460;2022-08-19T02:46:48;101136.78;;;15.21;100.00
58473;BME280;44775;51.564;5.460;2022-08-19T02:49:15;101139.31;;;15.23;100.00
58473;BME280;44775;51.564;5.460;2022-08-19T02:51:44;101144.03;;;15.21;100.00
58473;BME280;44775;51.564;5.460;2022-08-19T02:54:11;101157.72;;;15.19;100.00
58473;BME280;44775;51.564;5.460;2022-08-19T02:56:38;101147.13;;;15.18;100.00
58473;BME280;44775;51.564;5.460;2022-08-19T02:59:05;101152.94;;;15.21;100.00
58473;BME280;44775;51.564;5.460;2022-08-19T03:01:34;101158.63;;;15.11;100.00
58473;BME280;44775;51.564;5.460;2022-08-19T03:04:01;101152.63;;;15.09;100.00
58473;BME280;44775;51.564;5.460;2022-08-19T03:06:28;101139.56;;;15.06;100.00
58473;BME280;44775;51.564;5.460;2022-08-19T03:08:54;101138.66;;;14.99;100.00
58473;BME280;44775;51.564;5.460;2022-08-19T03:11:21;101137.44;;;15.02;100.00
58473;BME280;44775;51.564;5.460;2022-08-19T03:13:47;101133.44;;;14.98;100.00
58473;BME280;44775;51.564;5.460;2022-08-19T03:16:18;101141.97;;;15.01;100.00
58473;BME280;44775;51.564;5.460;2022-08-19T03:18:44;101138.00;;;14.97;100.00
58473;BME280;44775;51.564;5.460;2022-08-19T03:21:15;101143.75;;;14.94;100.00
58473;BME280;44775;51.564;5.460;2022-08-19T03:23:41;101147.09;;;14.96;100.00
58473;BME280;44775;51.564;5.460;2022-08-19T03:26:07;101142.75;;;14.95;100.00
58473;BME280;44775;51.564;5.460;2022-08-19T03:28:33;101139.78;;;14.90;100.00
58473;BME280;44775;51.564;5.460;2022-08-19T03:31:06;101141.44;;;14.91;100.00
58473;BME280;44775;51.564;5.460;2022-08-19T03:33:33;101140.81;;;14.89;100.00
58473;BME280;44775;51.564;5.460;2022-08-19T03:36:19;101144.50;;;14.88;100.00
58473;BME280;44775;51.564;5.460;2022-08-19T03:38:54;101140.25;;;14.94;100.00
58473;BME280;44775;51.564;5.460;2022-08-19T03:41:23;101140.06;;;14.95;100.00
58473;BME280;44775;51.564;5.460;2022-08-19T03:43:49;101141.44;;;14.91;100.00
58473;BME280;44775;51.564;5.460;2022-08-19T03:46:20;101124.84;;;14.87;100.00
58473;BME280;44775;51.564;5.460;2022-08-19T03:48:47;101124.84;;;14.87;100.00
58473;BME280;44775;51.564;5.460;2022-08-19T03:51:24;101121.06;;;14.82;100.00
58473;BME280;44775;51.564;5.460;2022-08-19T03:53:51;101127.38;;;14.89;100.00
58473;BME280;44775;51.564;5.460;2022-08-19T03:56:16;101128.56;;;14.86;100.00
58473;BME280;44775;51.564;5.460;2022-08-19T03:58:42;101124.00;;;14.87;100.00
58473;BME280;44775;51.564;5.460;2022-08-19T04:01:11;101125.28;;;14.91;100.00
58473;BME280;44775;51.564;5.460;2022-08-19T04:03:37;101128.28;;;14.81;100.00
58473;BME280;44775;51.564;5.460;2022-08-19T04:06:15;101134.78;;;14.87;100.00
58473;BME280;44775;51.564;5.460;2022-08-19T04:08:41;101137.84;;;14.84;100.00
58473;BME280;44775;51.564;5.460;2022-08-19T04:11:19;101139.78;;;14.90;100.00
58473;BME280;44775;51.564;5.460;2022-08-19T04:13:46;101130.44;;;14.86;100.00
58473;BME280;44775;51.564;5.460;2022-08-19T04:16:12;101123.56;;;14.83;100.00
58473;BME280;44775;51.564;5.460;2022-08-19T04:18:39;101127.47;;;14.81;100.00
58473;BME280;44775;51.564;5.460;2022-08-19T04:21:06;101128.13;;;14.83;100.00
58473;BME280;44775;51.564;5.460;2022-08-19T04:23:31;101135.00;;;14.71;100.00
58473;BME280;44775;51.564;5.460;2022-08-19T04:25:57;101127.59;;;14.73;100.00
58473;BME280;44775;51.564;5.460;2022-08-19T04:28:24;101131.19;;;14.80;100.00
58473;BME280;44775;51.564;5.460;2022-08-19T04:30:51;101131.47;;;14.85;100.00
58473;BME280;44775;51.564;5.460;2022-08-19T04:33:22;101129.69;;;14.77;100.00
58473;BME280;44775;51.564;5.460;2022-08-19T04:35:49;101133.13;;;14.71;100.00
58473;BME280;44775;51.564;5.460;2022-08-19T04:38:16;101127.84;;;14.78;100.00
58473;BME280;44775;51.564;5.460;2022-08-19T04:40:45;101128.34;;;14.67;100.00
58473;BME280;44775;51.564;5.460;2022-08-19T04:43:30;101131.59;;;14.62;100.00
58473;BME280;44775;51.564;5.460;2022-08-19T04:45:56;101126.41;;;14.60;100.00
58473;BME280;44775;51.564;5.460;2022-08-19T04:48:22;101129.28;;;14.59;100.00
58473;BME280;44775;51.564;5.460;2022-08-19T04:50:55;101124.84;;;14.51;100.00
58473;BME280;44775;51.564;5.460;2022-08-19T04:53:34;101129.09;;;14.60;100.00
58473;BME280;44775;51.564;5.460;2022-08-19T04:56:05;101129.72;;;14.48;100.00
58473;BME280;44775;51.564;5.460;2022-08-19T04:58:33;101134.38;;;14.39;100.00
58473;BME280;44775;51.564;5.460;2022-08-19T05:00:58;101141.97;;;14.35;100.00
58473;BME280;44775;51.564;5.460;2022-08-19T05:03:25;101145.13;;;14.39;100.00
58473;BME280;44775;51.564;5.460;2022-08-19T05:05:51;101147.34;;;14.35;100.00
58473;BME280;44775;51.564;5.460;2022-08-19T05:08:20;101144.28;;;14.38;100.00
58473;BME280;44775;51.564;5.460;2022-08-19T05:10:50;101152.00;;;14.41;100.00
58473;BME280;44775;51.564;5.460;2022-08-19T05:13:17;101157.00;;;14.45;100.00
58473;BME280;44775;51.564;5.460;2022-08-19T05:15:43;101155.25;;;14.52;100.00
58473;BME280;44775;51.564;5.460;2022-08-19T05:18:10;101163.66;;;14.49;100.00
58473;BME280;44775;51.564;5.460;2022-08-19T05:20:54;101168.34;;;14.55;100.00
58473;BME280;44775;51.564;5.460;2022-08-19T05:23:38;101172.94;;;14.61;100.00
58473;BME280;44775;51.564;5.460;2022-08-19T05:26:04;101178.16;;;14.62;100.00
58473;BME280;44775;51.564;5.460;2022-08-19T05:28:30;101180.28;;;14.67;100.00
58473;BME280;44775;51.564;5.460;2022-08-19T05:30:56;101183.88;;;14.74;100.00
58473;BME280;44775;51.564;5.460;2022-08-19T05:33:22;101184.16;;;14.79;100.00
58473;BME280;44775;51.564;5.460;2022-08-19T05:35:49;101193.34;;;14.85;100.00
58473;BME280;44775;51.564;5.460;2022-08-19T05:38:16;101199.44;;;14.94;100.00
58473;BME280;44775;51.564;5.460;2022-08-19T05:40:42;101194.50;;;14.97;100.00
58473;BME280;44775;51.564;5.460;2022-08-19T05:43:14;101195.63;;;15.03;100.00
58473;BME280;44775;51.564;5.460;2022-08-19T05:45:42;101200.25;;;15.09;100.00
58473;BME280;44775;51.564;5.460;2022-08-19T05:48:10;101190.56;;;15.15;100.00
58473;BME280;44775;51.564;5.460;2022-08-19T05:50:41;101196.22;;;15.20;100.00
58473;BME280;44775;51.564;5.460;2022-08-19T05:53:07;101191.75;;;15.27;100.00
58473;BME280;44775;51.564;5.460;2022-08-19T05:55:34;101192.84;;;15.32;100.00
58473;BME280;44775;51.564;5.460;2022-08-19T05:58:00;101183.81;;;15.40;100.00
58473;BME280;44775;51.564;5.460;2022-08-19T06:00:27;101189.69;;;15.50;100.00
58473;BME280;44775;51.564;5.460;2022-08-19T06:02:52;101183.09;;;15.53;100.00
58473;BME280;44775;51.564;5.460;2022-08-19T06:05:19;101180.34;;;15.68;100.00
58473;BME280;44775;51.564;5.460;2022-08-19T06:07:45;101183.06;;;15.68;100.00
58473;BME280;44775;51.564;5.460;2022-08-19T06:10:11;101180.81;;;15.71;100.00
58473;BME280;44775;51.564;5.460;2022-08-19T06:12:36;101175.84;;;15.75;100.00
58473;BME280;44775;51.564;5.460;2022-08-19T06:15:13;101174.69;;;15.84;100.00
58473;BME280;44775;51.564;5.460;2022-08-19T06:17:39;101177.19;;;15.86;100.00
58473;BME280;44775;51.564;5.460;2022-08-19T06:20:06;101179.94;;;15.92;100.00
58473;BME280;44775;51.564;5.460;2022-08-19T06:22:37;101185.63;;;16.04;100.00
58473;BME280;44775;51.564;5.460;2022-08-19T06:25:03;101179.25;;;16.12;100.00
58473;BME280;44775;51.564;5.460;2022-08-19T06:27:29;101182.06;;;16.32;100.00
58473;BME280;44775;51.564;5.460;2022-08-19T06:29:56;101177.94;;;16.36;100.00
58473;BME280;44775;51.564;5.460;2022-08-19T06:32:21;101174.69;;;16.47;100.00
58473;BME280;44775;51.564;5.460;2022-08-19T06:34:47;101174.16;;;16.65;100.00
58473;BME280;44775;51.564;5.460;2022-08-19T06:37:13;101175.13;;;16.92;100.00
58473;BME280;44775;51.564;5.460;2022-08-19T06:39:40;101175.38;;;17.10;100.00
58473;BME280;44775;51.564;5.460;2022-08-19T06:42:06;101174.81;;;17.28;100.00
58473;BME280;44775;51.564;5.460;2022-08-19T06:44:36;101177.97;;;17.52;100.00
58473;BME280;44775;51.564;5.460;2022-08-19T06:47:04;101184.00;;;17.60;100.00
58473;BME280;44775;51.564;5.460;2022-08-19T06:49:36;101183.00;;;17.88;100.00
58473;BME280;44775;51.564;5.460;2022-08-19T06:52:05;101197.13;;;18.16;100.00
58473;BME280;44775;51.564;5.460;2022-08-19T06:54:31;101185.44;;;18.36;100.00
58473;BME280;44775;51.564;5.460;2022-08-19T06:56:58;101188.03;;;18.62;100.00
58473;BME280;44775;51.564;5.460;2022-08-19T06:59:27;101192.44;;;19.15;100.00
58473;BME280;44775;51.564;5.460;2022-08-19T07:01:55;101189.84;;;19.27;100.00
58473;BME280;44775;51.564;5.460;2022-08-19T07:04:24;101195.25;;;19.33;99.42
58473;BME280;44775;51.564;5.460;2022-08-19T07:06:50;101186.28;;;19.71;98.90
58473;BME280;44775;51.564;5.460;2022-08-19T07:09:21;101188.59;;;19.68;95.42
58473;BME280;44775;51.564;5.460;2022-08-19T07:11:50;101194.69;;;19.88;94.31
58473;BME280;44775;51.564;5.460;2022-08-19T07:14:18;101192.00;;;20.07;92.68
58473;BME280;44775;51.564;5.460;2022-08-19T07:16:45;101199.84;;;20.15;92.02
58473;BME280;44775;51.564;5.460;2022-08-19T07:19:12;101204.56;;;20.44;91.44
58473;BME280;44775;51.564;5.460;2022-08-19T07:21:38;101220.13;;;20.74;90.68
58473;BME280;44775;51.564;5.460;2022-08-19T07:24:04;101219.91;;;20.57;88.16
58473;BME280;44775;51.564;5.460;2022-08-19T07:26:32;101217.88;;;20.52;89.71
58473;BME280;44775;51.564;5.460;2022-08-19T07:28:59;101223.31;;;20.52;88.60
58473;BME280;44775;51.564;5.460;2022-08-19T07:31:27;101228.28;;;20.56;90.43
58473;BME280;44775;51.564;5.460;2022-08-19T07:33:55;101226.25;;;20.51;89.78
58473;BME280;44775;51.564;5.460;2022-08-19T07:36:26;101231.31;;;20.41;89.72
58473;BME280;44775;51.564;5.460;2022-08-19T07:38:58;101220.84;;;20.26;89.39
58473;BME280;44775;51.564;5.460;2022-08-19T07:41:25;101227.78;;;20.40;89.98
58473;BME280;44775;51.564;5.460;2022-08-19T07:43:52;101228.75;;;20.52;90.03
58473;BME280;44775;51.564;5.460;2022-08-19T07:46:18;101229.59;;;20.46;90.14
58473;BME280;44775;51.564;5.460;2022-08-19T07:48:46;101234.41;;;20.44;89.73
58473;BME280;44775;51.564;5.460;2022-08-19T07:51:15;101242.91;;;20.55;89.28
58473;BME280;44775;51.564;5.460;2022-08-19T07:53:41;101245.72;;;20.41;88.27
58473;BME280;44775;51.564;5.460;2022-08-19T07:56:08;101248.94;;;20.32;90.07
58473;BME280;44775;51.564;5.460;2022-08-19T07:58:37;101243.72;;;20.55;89.38
58473;BME280;44775;51.564;5.460;2022-08-19T08:01:04;101243.81;;;20.67;89.99
58473;BME280;44775;51.564;5.460;2022-08-19T08:03:31;101250.19;;;20.79;87.95
58473;BME280;44775;51.564;5.460;2022-08-19T08:06:15;101248.41;;;20.85;86.11
58473;BME280;44775;51.564;5.460;2022-08-19T08:09:00;101252.13;;;20.90;87.16
58473;BME280;44775;51.564;5.460;2022-08-19T08:11:52;101257.41;;;21.04;87.04
58473;BME280;44775;51.564;5.460;2022-08-19T08:14:21;101250.97;;;20.98;86.54
58473;BME280;44775;51.564;5.460;2022-08-19T08:16:48;101253.88;;;21.03;85.41
58473;BME280;44775;51.564;5.460;2022-08-19T08:19:15;101261.47;;;21.13;85.94
58473;BME280;44775;51.564;5.460;2022-08-19T08:21:41;101259.63;;;21.25;84.74
58473;BME280;44775;51.564;5.460;2022-08-19T08:24:07;101263.59;;;21.11;83.87
58473;BME280;44775;51.564;5.460;2022-08-19T08:26:33;101267.75;;;21.13;85.21
58473;BME280;44775;51.564;5.460;2022-08-19T08:28:59;101262.84;;;21.04;84.82
58473;BME280;44775;51.564;5.460;2022-08-19T08:31:24;101275.50;;;20.91;85.18
58473;BME280;44775;51.564;5.460;2022-08-19T08:33:50;101276.72;;;20.77;86.44
58473;BME280;44775;51.564;5.460;2022-08-19T08:36:16;101274.97;;;21.01;84.53
58473;BME280;44775;51.564;5.460;2022-08-19T08:38:43;101287.28;;;21.04;84.08
58473;BME280;44775;51.564;5.460;2022-08-19T08:41:31;101282.22;;;20.89;85.61
58473;BME280;44775;51.564;5.460;2022-08-19T08:44:00;101289.00;;;20.98;84.39
58473;BME280;44775;51.564;5.460;2022-08-19T08:46:51;101287.91;;;20.87;85.23
58473;BME280;44775;51.564;5.460;2022-08-19T08:49:38;101292.63;;;20.73;85.16
58473;BME280;44775;51.564;5.460;2022-08-19T08:52:10;101295.16;;;20.93;85.65
58473;BME280;44775;51.564;5.460;2022-08-19T08:54:42;101297.53;;;21.02;84.07
58473;BME280;44775;51.564;5.460;2022-08-19T08:57:13;101284.94;;;21.44;82.61
58473;BME280;44775;51.564;5.460;2022-08-19T08:59:42;101286.16;;;21.60;80.90
58473;BME280;44775;51.564;5.460;2022-08-19T09:02:09;101280.44;;;21.50;80.12
58473;BME280;44775;51.564;5.460;2022-08-19T09:04:38;101282.41;;;21.42;81.32
58473;BME280;44775;51.564;5.460;2022-08-19T09:15:43;101276.41;;;21.82;80.36
58473;BME280;44775;51.564;5.460;2022-08-19T09:18:11;101275.16;;;22.08;78.77
58473;BME280;44775;51.564;5.460;2022-08-19T09:20:36;101281.84;;;22.36;77.63
58473;BME280;44775;51.564;5.460;2022-08-19T09:23:02;101286.34;;;22.54;76.79
58473;BME280;44775;51.564;5.460;2022-08-19T09:25:28;101284.09;;;22.62;75.58
58473;BME280;44775;51.564;5.460;2022-08-19T09:27:55;101290.25;;;22.70;75.57
58473;BME280;44775;51.564;5.460;2022-08-19T09:30:26;101288.94;;;22.60;76.36
58473;BME280;44775;51.564;5.460;2022-08-19T09:32:53;101290.50;;;22.45;76.13
58473;BME280;44775;51.564;5.460;2022-08-19T09:35:23;101297.13;;;22.25;76.75
58473;BME280;44775;51.564;5.460;2022-08-19T09:37:50;101300.00;;;22.00;77.49
58473;BME280;44775;51.564;5.460;2022-08-19T09:40:17;101308.41;;;21.99;77.75
58473;BME280;44775;51.564;5.460;2022-08-19T09:42:44;101305.16;;;21.90;78.47
58473;BME280;44775;51.564;5.460;2022-08-19T09:45:11;101298.28;;;21.76;78.22
58473;BME280;44775;51.564;5.460;2022-08-19T09:47:37;101297.16;;;22.07;78.29
58473;BME280;44775;51.564;5.460;2022-08-19T09:50:08;101295.03;;;22.09;77.33
58473;BME280;44775;51.564;5.460;2022-08-19T09:52:34;101293.09;;;22.28;77.51
58473;BME280;44775;51.564;5.460;2022-08-19T09:55:06;101303.25;;;22.68;75.04
58473;BME280;44775;51.564;5.460;2022-08-19T09:57:32;101307.06;;;22.78;73.61
58473;BME280;44775;51.564;5.460;2022-08-19T09:59:57;101299.94;;;22.77;73.79
58473;BME280;44775;51.564;5.460;2022-08-19T10:02:23;101304.34;;;22.78;73.86
58473;BME280;44775;51.564;5.460;2022-08-19T10:04:50;101310.28;;;22.52;74.33
58473;BME280;44775;51.564;5.460;2022-08-19T10:07:34;101310.25;;;22.40;75.48
58473;BME280;44775;51.564;5.460;2022-08-19T10:10:00;101306.84;;;22.56;75.24
58473;BME280;44775;51.564;5.460;2022-08-19T10:12:26;101305.63;;;22.64;74.48
58473;BME280;44775;51.564;5.460;2022-08-19T10:14:51;101308.50;;;22.69;74.06
58473;BME280;44775;51.564;5.460;2022-08-19T10:17:18;101313.00;;;22.52;74.70
58473;BME280;44775;51.564;5.460;2022-08-19T10:19:45;101301.16;;;22.58;74.60
58473;BME280;44775;51.564;5.460;2022-08-19T10:22:10;101298.78;;;22.73;74.07
58473;BME280;44775;51.564;5.460;2022-08-19T10:24:39;101301.56;;;23.25;72.01
58473;BME280;44775;51.564;5.460;2022-08-19T10:27:04;101298.19;;;23.64;70.64
58473;BME280;44775;51.564;5.460;2022-08-19T10:29:31;101297.47;;;23.97;69.66
58473;BME280;44775;51.564;5.460;2022-08-19T10:31:58;101305.47;;;23.87;69.48
58473;BME280;44775;51.564;5.460;2022-08-19T10:34:25;101308.09;;;23.82;68.93
58473;BME280;44775;51.564;5.460;2022-08-19T10:36:51;101306.34;;;23.75;69.16
58473;BME280;44775;51.564;5.460;2022-08-19T10:39:16;101313.78;;;23.51;69.38
58473;BME280;44775;51.564;5.460;2022-08-19T10:41:42;101300.81;;;23.30;70.82
58473;BME280;44775;51.564;5.460;2022-08-19T10:44:10;101302.09;;;23.39;69.61
58473;BME280;44775;51.564;5.460;2022-08-19T10:46:39;101304.91;;;23.44;69.68
58473;BME280;44775;51.564;5.460;2022-08-19T10:49:07;101303.13;;;23.50;70.19
58473;BME280;44775;51.564;5.460;2022-08-19T10:51:33;101299.25;;;23.91;68.75
58473;BME280;44775;51.564;5.460;2022-08-19T10:54:18;101298.94;;;24.04;67.74
58473;BME280;44775;51.564;5.460;2022-08-19T10:56:44;101294.06;;;24.07;68.07
58473;BME280;44775;51.564;5.460;2022-08-19T10:59:21;101294.41;;;24.10;67.34
58473;BME280;44775;51.564;5.460;2022-08-19T11:01:48;101293.00;;;24.24;66.44
58473;BME280;44775;51.564;5.460;2022-08-19T11:04:14;101292.38;;;24.39;66.14
58473;BME280;44775;51.564;5.460;2022-08-19T11:06:43;101291.00;;;24.37;65.02
58473;BME280;44775;51.564;5.460;2022-08-19T11:09:15;101292.66;;;24.04;65.70
58473;BME280;44775;51.564;5.460;2022-08-19T11:11:42;101294.47;;;23.98;65.80
58473;BME280;44775;51.564;5.460;2022-08-19T11:14:10;101287.25;;;24.09;66.44
58473;BME280;44775;51.564;5.460;2022-08-19T11:16:36;101282.81;;;24.37;65.59
58473;BME280;44775;51.564;5.460;2022-08-19T11:19:05;101283.00;;;24.47;65.05
58473;BME280;44775;51.564;5.460;2022-08-19T11:21:35;101290.94;;;24.48;64.71
58473;BME280;44775;51.564;5.460;2022-08-19T11:24:06;101293.47;;;24.55;64.33
58473;BME280;44775;51.564;5.460;2022-08-19T11:26:32;101298.59;;;24.90;63.75
58473;BME280;44775;51.564;5.460;2022-08-19T11:28:59;101295.38;;;25.37;62.36
58473;BME280;44775;51.564;5.460;2022-08-19T11:31:28;101298.81;;;25.06;62.50
58473;BME280;44775;51.564;5.460;2022-08-19T11:33:57;101292.34;;;25.83;61.18
58473;BME280;44775;51.564;5.460;2022-08-19T11:36:22;101286.56;;;26.49;58.99
58473;BME280;44775;51.564;5.460;2022-08-19T11:38:49;101279.31;;;27.27;56.90
58473;BME280;44775;51.564;5.460;2022-08-19T11:41:17;101279.97;;;28.11;54.81
58473;BME280;44775;51.564;5.460;2022-08-19T11:43:43;101279.56;;;28.84;51.88
58473;BME280;44775;51.564;5.460;2022-08-19T11:46:10;101275.50;;;29.81;49.03
58473;BME280;44775;51.564;5.460;2022-08-19T11:48:37;101273.00;;;30.48;49.74
58473;BME280;44775;51.564;5.460;2022-08-19T11:51:06;101272.63;;;29.57;46.39
58473;BME280;44775;51.564;5.460;2022-08-19T11:53:33;101263.75;;;28.35;50.05
58473;BME280;44775;51.564;5.460;2022-08-19T11:55:59;101270.91;;;28.06;50.62
58473;BME280;44775;51.564;5.460;2022-08-19T11:58:25;101261.50;;;27.61;51.80
58473;BME280;44775;51.564;5.460;2022-08-19T12:00:51;101274.16;;;27.67;51.74
58473;BME280;44775;51.564;5.460;2022-08-19T12:03:19;101265.91;;;28.38;51.04
58473;BME280;44775;51.564;5.460;2022-08-19T12:05:45;101268.06;;;28.72;49.36
58473;BME280;44775;51.564;5.460;2022-08-19T12:08:11;101270.81;;;28.82;48.78
58473;BME280;44775;51.564;5.460;2022-08-19T12:10:38;101274.34;;;28.88;49.13
58473;BME280;44775;51.564;5.460;2022-08-19T12:13:04;101274.00;;;29.05;48.08
58473;BME280;44775;51.564;5.460;2022-08-19T12:15:39;101281.00;;;28.61;49.32
58473;BME280;44775;51.564;5.460;2022-08-19T12:18:08;101281.31;;;28.34;50.21
58473;BME280;44775;51.564;5.460;2022-08-19T12:20:39;101277.50;;;28.15;50.83
58473;BME280;44775;51.564;5.460;2022-08-19T12:23:06;101269.81;;;28.17;50.74
58473;BME280;44775;51.564;5.460;2022-08-19T12:25:34;101272.28;;;28.03;51.74
58473;BME280;44775;51.564;5.460;2022-08-19T12:27:59;101269.53;;;28.18;51.40
58473;BME280;44775;51.564;5.460;2022-08-19T12:30:25;101266.81;;;27.88;52.59
58473;BME280;44775;51.564;5.460;2022-08-19T12:32:51;101261.78;;;27.49;52.95
58473;BME280;44775;51.564;5.460;2022-08-19T12:35:17;101265.41;;;28.00;51.47
58473;BME280;44775;51.564;5.460;2022-08-19T12:37:46;101260.44;;;28.18;51.49
58473;BME280;44775;51.564;5.460;2022-08-19T12:40:13;101269.50;;;28.34;50.98
58473;BME280;44775;51.564;5.460;2022-08-19T12:42:39;101253.59;;;28.20;50.88
58473;BME280;44775;51.564;5.460;2022-08-19T12:45:10;101257.13;;;28.52;51.13
58473;BME280;44775;51.564;5.460;2022-08-19T12:47:37;101264.00;;;28.54;50.47
58473;BME280;44775;51.564;5.460;2022-08-19T12:50:03;101260.09;;;28.76;51.00
58473;BME280;44775;51.564;5.460;2022-08-19T12:52:28;101257.91;;;28.67;50.21
58473;BME280;44775;51.564;5.460;2022-08-19T12:54:55;101252.47;;;28.32;51.11
58473;BME280;44775;51.564;5.460;2022-08-19T12:57:27;101251.66;;;28.00;52.99